Time;durP1;ratioP1;P1;durP2;ratioP2;P2;SDS_P1;SDS_P2;PMS_P1;PMS_P2;Temp;Humidity;BMP_temperature;BMP_pressure;BME280_temperature;BME280_humidity;BME280_pressure;Samples;Min_cycle;Max_cycle;Signal;HPM_P1;HPM_P2
2022/06/14 00:02:32;;;;;;;2.93;1.07;;;12.40;99.90;;;;;;4977190;28;20184;-90
2022/06/14 00:04:59;;;;;;;4.57;1.10;;;12.40;99.90;;;;;;4976608;28;20315;-88
2022/06/14 00:07:26;;;;;;;5.70;1.43;;;12.40;99.90;;;;;;4975777;28;20291;-88
2022/06/14 00:09:53;;;;;;;5.77;1.43;;;12.30;99.90;;;;;;4975802;28;20227;-91
2022/06/14 00:12:20;;;;;;;3.73;1.60;;;12.30;99.90;;;;;;4985064;28;20200;-90
2022/06/14 00:14:47;;;;;;;3.53;1.60;;;12.30;99.90;;;;;;4995006;28;20196;-87
2022/06/14 00:17:14;;;;;;;4.83;1.40;;;12.30;99.90;;;;;;4973997;28;20245;-88
2022/06/14 00:19:42;;;;;;;3.70;1.20;;;12.30;99.90;;;;;;4968804;29;20194;-89
2022/06/14 00:22:10;;;;;;;3.43;1.33;;;12.30;99.90;;;;;;4965462;28;20233;-88
2022/06/14 00:24:37;;;;;;;3.17;1.20;;;12.30;99.90;;;;;;4974813;28;20495;-88
2022/06/14 00:27:05;;;;;;;3.50;1.43;;;12.30;99.90;;;;;;4973958;28;20267;-88
2022/06/14 00:29:32;;;;;;;4.37;1.30;;;12.30;99.90;;;;;;4976752;28;20230;-87
2022/06/14 00:31:59;;;;;;;4.03;1.40;;;12.20;99.90;;;;;;4972507;28;20208;-86
2022/06/14 00:34:26;;;;;;;4.30;1.50;;;12.20;99.90;;;;;;4972416;28;20216;-87
2022/06/14 00:36:56;;;;;;;4.27;1.50;;;12.20;99.90;;;;;;4961103;28;20216;-88
2022/06/14 00:39:24;;;;;;;2.53;1.03;;;12.20;99.90;;;;;;4949661;29;20223;-88
2022/06/14 00:41:53;;;;;;;2.50;1.10;;;12.20;99.90;;;;;;4953354;28;20300;-88
2022/06/14 00:44:23;;;;;;;2.00;1.00;;;12.20;99.90;;;;;;4955188;28;20209;-85
2022/06/14 00:46:56;;;;;;;2.70;1.30;;;12.10;99.90;;;;;;4961778;28;20208;-88
2022/06/14 00:49:29;;;;;;;3.23;1.00;;;12.20;99.90;;;;;;4976641;28;20205;-90
2022/06/14 00:52:02;;;;;;;3.83;1.23;;;12.10;99.90;;;;;;4976629;28;20218;-87
2022/06/14 00:54:34;;;;;;;1.73;1.07;;;12.10;99.90;;;;;;4976384;28;20589;-88
2022/06/14 00:57:06;;;;;;;5.87;1.70;;;12.10;99.90;;;;;;4976203;28;20220;-84
2022/06/14 00:59:38;;;;;;;3.80;1.77;;;12.00;99.90;;;;;;4969746;28;20198;-89
2022/06/14 01:02:12;;;;;;;2.67;1.20;;;12.10;99.90;;;;;;4956596;29;20873;-87
2022/06/14 01:04:40;;;;;;;2.37;1.20;;;12.00;99.90;;;;;;4956955;29;20201;-86
2022/06/14 01:07:14;;;;;;;3.23;1.20;;;12.00;99.90;;;;;;4956420;29;20495;-88
2022/06/14 01:09:44;;;;;;;2.27;1.17;;;12.00;99.90;;;;;;4968409;28;20307;-91
2022/06/14 01:12:14;;;;;;;2.33;1.40;;;11.90;99.90;;;;;;4975459;28;20554;-87
2022/06/14 01:14:48;;;;;;;3.73;1.60;;;11.90;99.90;;;;;;4975970;28;20249;-87
2022/06/14 01:17:16;;;;;;;2.97;1.57;;;11.90;99.90;;;;;;4975309;28;20187;-89
2022/06/14 01:19:44;;;;;;;3.17;1.47;;;11.90;99.90;;;;;;4975833;28;20204;-88
2022/06/14 01:22:35;;;;;;;2.80;1.07;;;11.90;99.90;;;;;;4975457;28;20209;-87
2022/06/14 01:25:03;;;;;;;3.63;1.53;;;11.80;99.90;;;;;;4975476;28;20209;-89
2022/06/14 01:27:32;;;;;;;3.50;1.30;;;11.80;99.90;;;;;;4975416;28;20245;-88
2022/06/14 01:30:05;;;;;;;3.37;1.30;;;11.80;99.90;;;;;;4974781;28;20541;-88
2022/06/14 01:32:34;;;;;;;2.37;1.30;;;11.70;99.90;;;;;;4975541;28;20193;-88
2022/06/14 01:35:06;;;;;;;2.77;1.30;;;11.70;99.90;;;;;;4975393;28;20201;-90
2022/06/14 01:37:34;;;;;;;1.57;1.00;;;11.70;99.90;;;;;;4956019;29;20748;-88
2022/06/14 01:40:05;;;;;;;4.17;1.30;;;11.70;99.90;;;;;;4956313;29;20201;-87
2022/06/14 01:42:40;;;;;;;3.17;1.20;;;11.70;99.90;;;;;;4955511;29;20299;-89
2022/06/14 01:45:16;;;;;;;2.47;1.17;;;11.70;99.90;;;;;;4958346;28;20211;-90
2022/06/14 01:47:50;;;;;;;6.40;1.90;;;11.60;99.90;;;;;;4975700;28;20588;-89
2022/06/14 01:53:25;;;;;;;2.27;1.30;;;11.60;99.90;;;;;;4974572;28;20287;-88
2022/06/14 01:55:59;;;;;;;1.67;0.90;;;11.50;99.90;;;;;;4970613;28;20200;-87
2022/06/14 01:58:34;;;;;;;1.73;0.90;;;11.50;99.90;;;;;;4971862;28;20363;-88
2022/06/14 02:01:10;;;;;;;3.00;1.27;;;11.50;99.90;;;;;;4972065;28;20192;-91
2022/06/14 02:06:35;;;;;;;3.23;1.10;;;11.50;99.90;;;;;;4975093;28;20199;-87
2022/06/14 02:09:10;;;;;;;3.07;1.20;;;11.40;99.90;;;;;;4975172;28;20207;-88
2022/06/14 02:11:37;;;;;;;3.90;1.37;;;11.40;99.90;;;;;;4975027;28;20250;-88
2022/06/14 02:14:14;;;;;;;2.00;1.20;;;11.40;99.90;;;;;;4974346;28;20907;-88
2022/06/14 02:16:48;;;;;;;2.13;1.20;;;11.30;99.90;;;;;;4976227;28;20205;-89
2022/06/14 02:19:21;;;;;;;2.70;1.47;;;11.30;99.90;;;;;;4972914;28;20212;-86
2022/06/14 02:21:50;;;;;;;2.13;0.90;;;11.30;99.90;;;;;;4975239;28;20645;-89
2022/06/14 02:24:24;;;;;;;3.07;1.80;;;11.30;99.90;;;;;;4974821;28;20197;-89
2022/06/14 02:26:56;;;;;;;4.00;1.50;;;11.30;99.90;;;;;;4974523;28;20224;-86
2022/06/14 02:29:28;;;;;;;4.43;1.57;;;11.20;99.90;;;;;;4975164;28;20311;-89
2022/06/14 02:32:00;;;;;;;1.97;1.10;;;11.20;99.90;;;;;;4975003;28;20231;-88
2022/06/14 02:34:30;;;;;;;2.33;1.43;;;11.20;99.90;;;;;;4974547;28;20200;-88
2022/06/14 02:37:04;;;;;;;4.27;1.60;;;11.20;99.90;;;;;;4974763;28;20232;-90
2022/06/14 02:39:37;;;;;;;3.10;1.30;;;11.20;99.90;;;;;;4974379;28;20307;-88
2022/06/14 02:42:09;;;;;;;2.87;1.30;;;11.20;99.90;;;;;;4974068;28;20227;-88
2022/06/14 02:44:42;;;;;;;5.77;1.70;;;11.20;99.90;;;;;;4955188;29;20213;-92
2022/06/14 02:47:23;;;;;;;3.93;1.60;;;11.20;99.90;;;;;;4956000;29;20254;-88
2022/06/14 02:49:55;;;;;;;4.87;1.70;;;11.20;99.90;;;;;;4955866;28;20213;-86
2022/06/14 02:52:26;;;;;;;3.43;1.53;;;11.20;99.90;;;;;;4955512;29;20201;-90
2022/06/14 02:54:59;;;;;;;4.63;1.63;;;11.20;99.90;;;;;;4955529;29;20296;-89
2022/06/14 02:57:35;;;;;;;3.40;1.40;;;11.10;99.90;;;;;;4964621;28;20589;-90
2022/06/14 03:00:08;;;;;;;3.23;1.67;;;11.10;99.90;;;;;;4974546;28;20192;-93
2022/06/14 03:02:42;;;;;;;5.63;1.90;;;11.10;99.90;;;;;;4975036;28;20219;-90
2022/06/14 03:05:16;;;;;;;3.33;1.50;;;11.10;99.90;;;;;;4974235;28;20250;-89
2022/06/14 03:07:49;;;;;;;3.10;1.57;;;11.10;99.90;;;;;;4973733;28;20299;-90
2022/06/14 03:10:18;;;;;;;5.00;1.80;;;11.10;99.90;;;;;;4970562;28;20228;-89
2022/06/14 03:12:51;;;;;;;3.77;1.80;;;11.10;99.90;;;;;;4975470;23;20243;-89
2022/06/14 03:15:27;;;;;;;3.23;1.80;;;11.00;99.90;;;;;;4954129;29;20296;-88
2022/06/14 03:18:05;;;;;;;1.97;1.57;;;11.00;99.90;;;;;;4954434;29;20515;-88
2022/06/14 03:20:45;;;;;;;3.20;1.47;;;11.00;99.90;;;;;;4954591;29;20221;-91
2022/06/14 03:23:26;;;;;;;3.13;1.73;;;11.00;99.90;;;;;;4953775;29;20295;-87
2022/06/14 03:26:01;;;;;;;2.37;1.73;;;11.00;99.90;;;;;;4955029;29;20209;-92
2022/06/14 03:28:40;;;;;;;2.43;1.80;;;10.90;99.90;;;;;;4955046;29;20212;-88
2022/06/14 03:31:11;;;;;;;2.63;1.80;;;10.90;99.90;;;;;;4955099;29;20217;-88
2022/06/14 03:33:44;;;;;;;4.90;1.73;;;10.90;99.90;;;;;;4954989;29;20228;-91
2022/06/14 03:36:11;;;;;;;4.70;1.80;;;10.90;99.90;;;;;;4950560;29;20209;-92
2022/06/14 03:38:42;;;;;;;2.23;1.47;;;10.90;99.90;;;;;;4962314;28;20331;-88
2022/06/14 03:41:13;;;;;;;3.17;1.60;;;10.90;99.90;;;;;;4974257;28;20574;-88
2022/06/14 03:43:41;;;;;;;3.50;1.90;;;10.90;99.90;;;;;;4973798;28;20209;-87
2022/06/14 03:46:14;;;;;;;3.27;1.80;;;10.90;99.90;;;;;;4972941;28;20212;-89
2022/06/14 03:48:45;;;;;;;3.50;1.90;;;11.00;99.90;;;;;;4973877;28;20291;-88
2022/06/14 03:51:20;;;;;;;3.40;1.80;;;11.10;99.90;;;;;;4972371;28;20239;-87
2022/06/14 03:54:09;;;;;;;3.07;1.63;;;11.10;99.90;;;;;;4974143;28;20259;-92
2022/06/14 03:56:56;;;;;;;5.57;2.57;;;11.10;99.90;;;;;;4972540;28;20209;-88
2022/06/14 03:59:49;;;;;;;6.03;2.10;;;11.10;99.90;;;;;;4973189;28;20204;-88
2022/06/14 04:02:22;;;;;;;5.30;2.70;;;11.10;99.90;;;;;;4953872;29;20799;-88
2022/06/14 04:04:56;;;;;;;3.90;2.07;;;11.20;99.90;;;;;;4953489;29;20201;-88
2022/06/14 04:07:34;;;;;;;4.67;2.50;;;11.20;99.90;;;;;;4970270;28;20201;-87
2022/06/14 04:10:07;;;;;;;2.77;2.00;;;11.30;99.90;;;;;;4972980;28;20185;-88
2022/06/14 04:12:43;;;;;;;4.00;1.90;;;11.30;99.90;;;;;;4953996;28;20324;-88
2022/06/14 04:15:27;;;;;;;4.00;2.00;;;11.40;99.90;;;;;;4954448;28;20606;-91
2022/06/14 04:18:34;;;;;;;4.03;1.90;;;11.50;99.90;;;;;;4953834;28;20292;-88
2022/06/14 04:20:56;;;;;;;3.73;1.90;;;11.60;99.90;;;;;;4954326;29;20566;-88
2022/06/14 04:23:33;;;;;;;7.97;1.90;;;11.70;99.90;;;;;;4969305;28;20223;-92
2022/06/14 04:26:07;;;;;;;2.93;1.60;;;11.70;99.90;;;;;;4972471;28;20275;-88
2022/06/14 04:28:45;;;;;;;4.03;1.80;;;11.80;99.90;;;;;;4973025;28;20204;-86
2022/06/14 04:31:18;;;;;;;4.93;2.20;;;11.90;99.90;;;;;;4953887;29;20233;-87
2022/06/14 04:33:50;;;;;;;6.33;2.10;;;12.00;99.90;;;;;;4958415;28;20200;-88
2022/06/14 04:36:22;;;;;;;4.13;1.80;;;12.10;99.90;;;;;;4973855;28;20209;-88
2022/06/14 04:38:54;;;;;;;2.83;1.63;;;12.10;99.90;;;;;;4972241;28;20234;-89
2022/06/14 04:41:26;;;;;;;3.03;1.67;;;12.20;99.90;;;;;;4973168;28;20595;-91
2022/06/14 04:43:58;;;;;;;3.80;1.90;;;12.20;99.90;;;;;;4973669;28;20308;-88
2022/06/14 04:46:30;;;;;;;5.50;1.87;;;12.30;99.90;;;;;;4968984;28;20612;-86
2022/06/14 04:49:06;;;;;;;4.53;1.90;;;12.30;99.90;;;;;;4971268;28;20199;-91
2022/06/14 04:51:40;;;;;;;5.73;2.10;;;12.30;99.90;;;;;;4974678;28;20927;-90
2022/06/14 04:54:11;;;;;;;2.80;1.90;;;12.40;99.90;;;;;;4972215;28;20608;-89
2022/06/14 04:56:42;;;;;;;6.53;2.10;;;12.60;99.90;;;;;;4973105;28;20510;-89
2022/06/14 04:59:17;;;;;;;3.03;2.20;;;12.80;99.90;;;;;;4972520;28;20215;-88
2022/06/14 05:01:48;;;;;;;5.30;2.20;;;13.10;99.90;;;;;;4973232;28;20193;-87
2022/06/14 05:04:22;;;;;;;8.40;2.67;;;13.40;99.90;;;;;;4973345;28;20236;-93
2022/06/14 05:06:55;;;;;;;5.50;2.47;;;13.80;99.90;;;;;;4972881;28;20224;-93
2022/06/14 05:09:28;;;;;;;7.83;2.53;;;14.20;99.90;;;;;;4972624;28;20205;-88
2022/06/14 05:12:04;;;;;;;5.97;2.20;;;14.60;99.90;;;;;;4951393;29;20896;-89
2022/06/14 05:14:38;;;;;;;6.40;2.50;;;15.10;99.90;;;;;;4949660;29;20194;-87
2022/06/14 05:17:09;;;;;;;6.13;2.10;;;15.50;99.90;;;;;;4971321;28;20231;-88
2022/06/14 05:19:45;;;;;;;6.68;2.53;;;15.90;99.90;;;;;;4971919;28;20204;-87
2022/06/14 05:22:19;;;;;;;3.75;2.20;;;16.30;99.90;;;;;;4971699;28;20834;-86
2022/06/14 05:24:46;;;;;;;8.48;2.67;;;16.70;99.90;;;;;;4972625;28;20211;-87
2022/06/14 05:27:34;;;;;;;7.55;3.05;;;17.10;99.90;;;;;;4971234;28;20555;-90
2022/06/14 05:30:09;;;;;;;3.42;2.03;;;17.50;99.90;;;;;;4973597;28;20239;-89
2022/06/14 05:32:48;;;;;;;4.78;2.20;;;18.00;99.90;;;;;;4975352;28;20318;-93
2022/06/14 05:35:28;;;;;;;3.67;2.15;;;18.40;99.90;;;;;;4975201;28;20255;-89
2022/06/14 05:38:03;;;;;;;6.05;2.05;;;18.80;99.90;;;;;;4975296;28;20589;-89
2022/06/14 05:40:38;;;;;;;5.38;2.40;;;19.10;99.90;;;;;;4974275;28;20204;-89
2022/06/14 05:43:10;;;;;;;4.60;2.50;;;19.20;99.90;;;;;;4975937;28;20612;-90
2022/06/14 05:45:43;;;;;;;7.93;2.50;;;19.10;99.90;;;;;;4975533;28;20296;-88
2022/06/14 05:48:16;;;;;;;7.47;2.30;;;19.10;99.90;;;;;;4975073;28;20201;-89
2022/06/14 05:50:48;;;;;;;4.28;1.95;;;19.40;99.90;;;;;;4975838;28;20205;-94
2022/06/14 05:53:20;;;;;;;6.60;2.20;;;19.70;99.90;;;;;;4975449;28;20639;-88
2022/06/14 05:55:51;;;;;;;5.90;2.50;;;19.90;99.90;;;;;;4976859;28;20236;-88
2022/06/14 05:58:22;;;;;;;6.97;2.60;;;19.90;99.90;;;;;;4974967;28;20204;-91
2022/06/14 06:00:54;;;;;;;5.13;2.20;;;20.00;99.90;;;;;;4975835;28;20189;-88
2022/06/14 06:03:27;;;;;;;6.97;2.28;;;20.30;99.90;;;;;;4975837;28;20335;-89
2022/06/14 06:06:00;;;;;;;6.95;2.58;;;20.50;99.90;;;;;;4975878;28;20205;-89
2022/06/14 06:08:34;;;;;;;8.88;2.50;;;20.80;99.90;;;;;;4975285;28;20211;-91
2022/06/14 06:11:07;;;;;;;7.53;2.58;;;20.80;99.90;;;;;;4976206;28;20200;-88
2022/06/14 06:13:39;;;;;;;5.88;2.30;;;21.20;99.90;;;;;;4975594;28;20932;-90
2022/06/14 06:16:13;;;;;;;7.65;2.35;;;21.70;99.90;;;;;;4975806;28;20209;-92
2022/06/14 06:18:45;;;;;;;5.10;1.80;;;21.90;99.90;;;;;;4955963;29;20192;-89
2022/06/14 06:21:20;;;;;;;6.00;3.08;;;22.00;99.90;;;;;;4958058;29;20550;-89
2022/06/14 06:23:53;;;;;;;3.78;1.70;;;21.80;99.90;;;;;;4957130;29;20235;-91
2022/06/14 06:26:23;;;;;;;4.18;2.03;;;21.90;99.90;;;;;;4964046;28;20200;-89
2022/06/14 06:28:54;;;;;;;5.05;2.00;;;22.00;99.90;;;;;;4976208;28;20496;-88
2022/06/14 06:31:26;;;;;;;4.63;1.65;;;22.30;99.90;;;;;;4976618;28;20255;-90
2022/06/14 06:33:56;;;;;;;6.32;1.65;;;22.50;99.90;;;;;;4957916;29;20200;-90
2022/06/14 06:36:48;;;;;;;4.53;1.98;;;22.80;99.90;;;;;;4956492;29;20209;-90
2022/06/14 06:39:33;;;;;;;7.78;1.77;;;23.00;99.90;;;;;;4967423;28;20840;-90
2022/06/14 06:42:06;;;;;;;3.30;1.20;;;23.30;99.90;;;;;;4975884;28;20251;-88
2022/06/14 06:44:39;;;;;;;5.85;2.13;;;23.60;99.90;;;;;;4976955;28;20355;-91
2022/06/14 06:47:16;;;;;;;4.45;1.67;;;23.90;99.90;;;;;;4977051;28;20292;-90
2022/06/14 06:49:56;;;;;;;5.28;1.80;;;24.10;99.90;;;;;;4975013;28;20204;-91
2022/06/14 06:52:30;;;;;;;5.28;1.60;;;24.30;99.90;;;;;;4977776;28;20311;-89
2022/06/14 06:55:02;;;;;;;3.53;1.60;;;24.30;99.90;;;;;;4974399;28;20219;-87
2022/06/14 06:57:31;;;;;;;4.93;1.90;;;24.60;99.90;;;;;;4975507;28;20232;-88
2022/06/14 07:00:04;;;;;;;2.38;1.40;;;24.70;99.90;;;;;;4973726;28;20208;-88
2022/06/14 07:02:37;;;;;;;3.38;1.45;;;24.80;99.90;;;;;;4969189;28;20688;-89
2022/06/14 07:05:06;;;;;;;4.82;1.73;;;24.80;99.90;;;;;;4972421;28;20255;-86
2022/06/14 07:07:45;;;;;;;5.40;1.35;;;25.10;99.90;;;;;;4971155;28;20525;-87
2022/06/14 07:10:20;;;;;;;3.90;1.73;;;25.20;99.90;;;;;;4971231;28;20216;-87
2022/06/14 07:12:52;;;;;;;5.32;1.80;;;25.50;99.90;;;;;;4973068;28;20251;-89
2022/06/14 07:15:23;;;;;;;4.35;1.58;;;25.70;99.90;;;;;;4973115;28;20221;-88
2022/06/14 07:17:56;;;;;;;2.65;1.52;;;25.80;99.90;;;;;;4961506;28;20215;-87
2022/06/14 07:21:16;;;;;;;3.83;1.48;;;26.00;99.90;;;;;;4913820;29;20342;-85
2022/06/14 07:23:48;;;;;;;4.07;2.08;;;25.80;99.90;;;;;;4954190;29;20260;-89
2022/06/14 07:26:23;;;;;;;5.85;2.22;;;25.70;99.90;;;;;;4953189;29;20212;-87
2022/06/14 07:28:58;;;;;;;4.47;1.60;;;25.70;99.90;;;;;;4950804;29;20228;-87
2022/06/14 07:31:31;;;;;;;2.85;1.15;;;26.10;99.90;;;;;;4955743;29;20196;-90
2022/06/14 07:34:01;;;;;;;1.95;1.00;;;26.50;99.90;;;;;;4968206;28;20212;-88
2022/06/14 07:36:35;;;;;;;4.95;1.17;;;26.30;99.90;;;;;;4973545;28;20260;-87
2022/06/14 07:39:16;;;;;;;3.00;1.23;;;26.30;99.90;;;;;;4970582;28;20228;-88
2022/06/14 07:41:49;;;;;;;5.53;1.52;;;26.20;99.90;;;;;;4973064;28;20262;-87
2022/06/14 07:44:24;;;;;;;4.93;1.40;;;26.10;99.90;;;;;;4973043;28;20555;-88
2022/06/14 07:47:04;;;;;;;2.90;1.25;;;26.00;99.90;;;;;;4973813;28;20530;-88
2022/06/14 07:49:41;;;;;;;4.55;1.50;;;26.30;99.90;;;;;;4972424;28;20193;-88
2022/06/14 07:52:15;;;;;;;2.80;1.30;;;26.60;99.90;;;;;;4968926;28;20233;-87
2022/06/14 07:54:46;;;;;;;2.10;1.25;;;26.50;99.90;;;;;;4952929;29;20201;-89
2022/06/14 07:57:19;;;;;;;4.68;1.38;;;26.70;99.90;;;;;;4953629;29;20313;-86
2022/06/14 07:59:51;;;;;;;3.70;1.30;;;26.50;99.90;;;;;;4953400;29;20925;-85
2022/06/14 08:02:28;;;;;;;4.20;1.30;;;26.00;99.90;;;;;;4959635;28;20208;-87
2022/06/14 08:05:02;;;;;;;3.90;1.30;;;25.80;99.90;;;;;;4971585;28;20197;-86
2022/06/14 08:07:31;;;;;;;3.85;1.50;;;25.70;99.90;;;;;;4972027;28;20185;-91
2022/06/14 08:10:03;;;;;;;2.45;1.30;;;25.30;99.90;;;;;;4969109;28;20287;-85
2022/06/14 08:12:37;;;;;;;2.42;1.00;;;24.80;99.90;;;;;;4971160;28;20228;-86
2022/06/14 08:15:08;;;;;;;7.03;1.67;;;24.80;99.90;;;;;;4971267;28;20227;-92
2022/06/14 08:17:41;;;;;;;3.38;1.60;;;24.90;99.90;;;;;;4972119;28;20223;-87
2022/06/14 08:20:18;;;;;;;3.78;1.50;;;25.00;99.90;;;;;;4971337;28;20677;-86
2022/06/14 08:22:49;;;;;;;4.05;1.77;;;25.30;99.90;;;;;;4970067;28;20917;-87
2022/06/14 08:25:19;;;;;;;3.50;1.45;;;25.40;99.90;;;;;;4972797;28;20205;-89
2022/06/14 08:27:52;;;;;;;6.60;2.08;;;25.50;99.90;;;;;;4970673;28;20212;-88
2022/06/14 08:30:25;;;;;;;2.45;1.52;;;25.50;99.90;;;;;;4969708;28;20259;-92
2022/06/14 08:32:55;;;;;;;4.82;1.50;;;25.50;99.90;;;;;;4973538;28;20322;-90
2022/06/14 08:35:28;;;;;;;5.05;2.05;;;25.50;99.90;;;;;;4972722;28;20597;-95
2022/06/14 08:37:59;;;;;;;3.08;1.35;;;25.20;99.90;;;;;;4971772;28;20224;-87
2022/06/14 08:40:40;;;;;;;2.05;1.13;;;25.10;99.90;;;;;;4972185;28;20615;-87
2022/06/14 08:43:10;;;;;;;4.68;1.85;;;25.00;99.90;;;;;;4969129;28;20230;-88
2022/06/14 08:45:40;;;;;;;3.58;1.40;;;25.00;99.90;;;;;;4971301;28;20538;-89
2022/06/14 08:48:19;;;;;;;3.78;1.80;;;24.90;99.90;;;;;;4970955;28;20565;-88
2022/06/14 08:50:59;;;;;;;2.20;1.15;;;25.00;99.90;;;;;;4972697;28;20276;-88
2022/06/14 08:54:08;;;;;;;3.22;1.67;;;25.20;99.90;;;;;;4971965;28;20509;-87
2022/06/14 08:57:01;;;;;;;4.90;1.90;;;25.30;99.90;;;;;;4948551;28;20200;-88
2022/06/14 08:59:46;;;;;;;3.17;1.90;;;25.20;99.90;;;;;;4971720;28;20467;-87
2022/06/14 09:02:58;;;;;;;5.38;1.83;;;25.30;99.90;;;;;;4971359;28;20593;-87
2022/06/14 09:05:44;;;;;;;5.47;2.00;;;25.50;99.90;;;;;;4947226;28;20623;-89
2022/06/14 09:08:47;;;;;;;7.93;2.92;;;25.40;99.90;;;;;;4975511;28;20235;-86
2022/06/14 09:11:51;;;;;;;6.72;2.38;;;25.40;99.90;;;;;;4975127;28;20196;-88
2022/06/14 09:14:58;;;;;;;5.07;2.20;;;25.30;99.90;;;;;;4972649;28;20870;-85
2022/06/14 09:17:47;;;;;;;5.68;2.25;;;25.30;99.90;;;;;;4974819;28;20215;-94
2022/06/14 09:20:27;;;;;;;4.90;2.38;;;25.30;99.90;;;;;;4973152;28;20231;-83
2022/06/14 09:23:08;;;;;;;4.85;2.35;;;25.60;99.90;;;;;;4972707;28;20197;-87
2022/06/14 09:25:51;;;;;;;3.97;1.70;;;26.00;99.90;;;;;;4956238;29;20208;-87
2022/06/14 09:28:53;;;;;;;6.40;2.42;;;26.00;99.90;;;;;;4955663;29;20201;-86
2022/06/14 09:31:41;;;;;;;6.20;2.47;;;26.00;99.90;;;;;;4958508;28;20184;-89
2022/06/14 09:34:32;;;;;;;3.60;2.05;;;26.10;99.90;;;;;;4975085;28;20545;-86
2022/06/14 09:37:30;;;;;;;2.15;1.00;;;25.80;99.90;;;;;;4974162;28;20215;-87
2022/06/14 09:40:34;;;;;;;2.78;1.38;;;26.40;99.90;;;;;;4965771;28;20209;-89
2022/06/14 09:43:49;;;;;;;3.75;1.38;;;26.30;99.90;;;;;;4934126;29;20204;-87
2022/06/14 09:46:40;;;;;;;3.10;1.10;;;26.00;99.90;;;;;;4901414;29;20270;-94
2022/06/14 09:49:45;;;;;;;3.85;1.15;;;25.20;99.90;;;;;;4971961;28;20212;-86
2022/06/14 09:52:36;;;;;;;3.00;1.23;;;24.50;99.90;;;;;;4962171;28;20213;-95
2022/06/14 09:55:34;;;;;;;5.25;2.25;;;24.20;99.90;;;;;;4983463;28;20223;-87
2022/06/14 09:58:36;;;;;;;5.28;1.88;;;23.90;99.90;;;;;;4974888;28;20205;-91
2022/06/14 10:01:12;;;;;;;3.60;1.70;;;23.60;99.90;;;;;;4954797;29;20212;-87
2022/06/14 10:04:08;;;;;;;4.03;1.50;;;23.20;99.90;;;;;;4955248;29;20197;-90
2022/06/14 10:06:57;;;;;;;5.28;1.80;;;23.10;99.90;;;;;;4955099;29;20304;-86
2022/06/14 10:09:37;;;;;;;2.05;1.08;;;22.70;99.90;;;;;;4952718;28;20276;-89
2022/06/14 10:12:21;;;;;;;4.88;1.30;;;22.60;99.90;;;;;;4954918;29;20628;-87
2022/06/14 10:14:56;;;;;;;4.75;1.90;;;22.60;99.90;;;;;;4937498;28;22376;-87
2022/06/14 10:17:53;;;;;;;2.60;1.50;;;22.40;99.90;;;;;;4953946;29;20283;-89
2022/06/14 10:20:34;;;;;;;4.00;1.35;;;22.40;99.90;;;;;;4953830;29;20197;-87
2022/06/14 10:23:11;;;;;;;2.13;1.15;;;22.30;99.90;;;;;;4954582;29;20201;-86
2022/06/14 10:28:11;;;;;;;3.28;1.52;;;22.40;99.90;;;;;;4938696;29;20309;-88
2022/06/14 10:28:48;;;;;;;3.72;1.33;;;22.70;99.90;;;;;;4935145;29;20309;-84
2022/06/14 10:31:23;;;;;;;2.42;1.38;;;23.10;99.90;;;;;;4935614;29;20197;-85
2022/06/14 10:33:54;;;;;;;3.63;1.20;;;23.50;99.90;;;;;;4935268;29;20230;-85
2022/06/14 10:36:53;;;;;;;4.18;1.10;;;23.60;99.90;;;;;;4936959;29;20186;-87
2022/06/14 10:39:55;;;;;;;2.38;0.90;;;23.60;99.90;;;;;;4953891;29;20586;-86
2022/06/14 10:42:29;;;;;;;3.58;1.30;;;23.80;99.90;;;;;;4954738;29;20197;-90
2022/06/14 10:45:00;;;;;;;5.10;1.38;;;23.90;99.90;;;;;;4955144;29;20225;-88
2022/06/14 10:47:44;;;;;;;3.58;1.30;;;24.00;99.90;;;;;;4954363;29;20693;-87
2022/06/14 10:50:41;;;;;;;5.30;1.20;;;24.20;99.90;;;;;;4954488;29;20232;-87
2022/06/14 10:53:23;;;;;;;3.00;1.27;;;24.00;99.90;;;;;;4954656;29;20221;-87
2022/06/14 10:56:29;;;;;;;3.30;1.58;;;24.20;99.90;;;;;;4944934;29;20197;-90
2022/06/14 10:59:29;;;;;;;4.28;1.70;;;24.10;99.90;;;;;;4954548;29;20288;-83
2022/06/14 11:02:02;;;;;;;4.20;1.38;;;24.10;99.90;;;;;;4954172;29;20300;-88
2022/06/14 11:04:34;;;;;;;2.38;1.17;;;24.30;99.90;;;;;;4953517;29;20292;-86
2022/06/14 11:07:31;;;;;;;2.95;1.08;;;24.40;99.90;;;;;;4953971;29;20227;-94
2022/06/14 11:10:23;;;;;;;2.35;1.10;;;24.80;99.90;;;;;;4929910;29;20268;-88
2022/06/14 11:12:59;;;;;;;4.28;1.55;;;24.80;99.90;;;;;;4960116;28;20245;-92
2022/06/14 11:15:35;;;;;;;4.55;1.40;;;24.60;99.90;;;;;;4973153;28;20188;-87
2022/06/14 11:18:39;;;;;;;2.30;0.90;;;24.50;99.90;;;;;;4974095;28;20188;-86
2022/06/14 11:21:19;;;;;;;2.00;1.10;;;24.70;99.90;;;;;;4960415;28;20218;-87
2022/06/14 11:23:53;;;;;;;3.05;1.20;;;24.90;99.90;;;;;;4973534;28;20294;-87
2022/06/14 11:26:32;;;;;;;3.25;1.10;;;24.80;99.90;;;;;;4972878;28;20203;-85
2022/06/14 11:29:08;;;;;;;2.00;0.95;;;24.60;99.90;;;;;;4972607;28;20307;-87
2022/06/14 11:31:43;;;;;;;1.35;0.95;;;24.50;99.90;;;;;;4973380;28;20188;-87
2022/06/14 11:34:37;;;;;;;2.75;1.00;;;24.70;99.90;;;;;;4972693;28;20228;-86
2022/06/14 11:37:26;;;;;;;3.42;1.55;;;25.00;99.90;;;;;;4973327;28;20279;-94
2022/06/14 11:39:59;;;;;;;1.80;1.00;;;25.00;99.90;;;;;;4973891;28;20272;-89
2022/06/14 11:42:32;;;;;;;2.33;1.05;;;25.00;99.90;;;;;;4972839;28;20211;-89
2022/06/14 11:45:10;;;;;;;2.80;0.90;;;25.20;99.90;;;;;;4973181;28;20204;-92
2022/06/14 11:47:43;;;;;;;5.65;1.20;;;25.50;99.90;;;;;;4969098;28;20589;-86
2022/06/14 11:50:21;;;;;;;4.10;1.23;;;25.80;99.90;;;;;;4959697;28;20212;-87
2022/06/14 11:53:12;;;;;;;2.40;1.05;;;25.80;99.90;;;;;;4952095;29;20531;-88
2022/06/14 11:55:46;;;;;;;2.65;1.10;;;25.70;99.90;;;;;;4952678;29;20229;-88
2022/06/14 11:58:22;;;;;;;3.63;0.93;;;25.50;99.90;;;;;;4952950;29;20509;-87
2022/06/14 12:01:15;;;;;;;2.92;1.27;;;25.60;99.90;;;;;;4962429;28;20668;-88
2022/06/14 12:03:59;;;;;;;4.57;1.40;;;25.60;99.90;;;;;;4970778;28;20339;-87
2022/06/14 12:06:37;;;;;;;3.90;0.90;;;25.80;99.90;;;;;;4967255;28;20226;-88
2022/06/14 12:09:37;;;;;;;2.65;1.08;;;25.70;99.90;;;;;;4966481;28;20246;-88
2022/06/14 12:12:15;;;;;;;4.13;1.23;;;25.70;99.90;;;;;;4928733;28;20211;-88
2022/06/14 12:15:02;;;;;;;2.60;1.13;;;25.80;99.90;;;;;;4972016;28;20643;-87
2022/06/14 12:17:36;;;;;;;1.08;0.80;;;26.10;99.90;;;;;;4971606;28;20585;-85
2022/06/14 12:20:07;;;;;;;1.50;0.90;;;26.30;99.90;;;;;;4972399;28;20205;-83
2022/06/14 12:22:44;;;;;;;3.10;1.50;;;26.30;99.90;;;;;;4972548;28;20207;-85
2022/06/14 12:28:09;;;;;;;6.18;1.27;;;26.10;99.90;;;;;;4972673;28;20316;-85
2022/06/14 12:30:41;;;;;;;3.10;1.08;;;25.70;99.90;;;;;;4972982;28;20188;-87
2022/06/14 12:33:17;;;;;;;2.67;1.45;;;25.50;99.90;;;;;;4972569;28;20779;-88
2022/06/14 12:35:54;;;;;;;2.00;1.20;;;25.40;99.90;;;;;;4974125;28;20185;-87
2022/06/14 12:38:26;;;;;;;3.05;0.98;;;25.30;99.90;;;;;;4973334;28;20224;-82
2022/06/14 12:40:58;;;;;;;1.42;0.90;;;25.30;99.90;;;;;;4977490;28;20203;-86
2022/06/14 12:43:29;;;;;;;2.17;0.88;;;25.30;99.90;;;;;;4978266;28;20623;-86
2022/06/14 12:46:01;;;;;;;2.92;1.17;;;25.40;99.90;;;;;;4978199;28;20204;-87
2022/06/14 12:48:38;;;;;;;2.78;1.20;;;25.50;99.90;;;;;;4978692;28;20200;-87
2022/06/14 12:51:11;;;;;;;1.65;0.93;;;25.80;99.90;;;;;;4976601;28;20228;-82
2022/06/14 12:53:44;;;;;;;2.80;1.08;;;25.90;99.90;;;;;;4980345;28;20212;-84
2022/06/14 12:56:16;;;;;;;2.28;1.15;;;25.70;99.90;;;;;;4994128;28;20181;-84
2022/06/14 12:58:53;;;;;;;3.25;1.13;;;25.60;99.90;;;;;;4973863;28;20236;-87
2022/06/14 13:01:35;;;;;;;3.10;1.05;;;25.30;99.90;;;;;;4967376;29;20264;-88
2022/06/14 13:04:11;;;;;;;2.85;1.10;;;25.10;99.90;;;;;;4970937;28;20217;-92
2022/06/14 13:06:54;;;;;;;1.42;0.98;;;25.00;99.90;;;;;;4978783;28;20210;-86
2022/06/14 13:09:31;;;;;;;2.22;0.80;;;24.90;99.90;;;;;;4974899;28;20199;-86
2022/06/14 13:12:10;;;;;;;1.73;0.98;;;25.00;99.90;;;;;;4974610;28;20557;-90
2022/06/14 13:14:46;;;;;;;4.05;1.27;;;24.90;99.90;;;;;;4973696;28;20506;-85
2022/06/14 13:17:26;;;;;;;3.25;1.30;;;24.40;99.90;;;;;;4974558;28;20203;-90
2022/06/14 13:19:59;;;;;;;3.53;1.30;;;24.20;99.90;;;;;;4975394;28;20480;-88
2022/06/14 13:22:46;;;;;;;2.33;1.20;;;23.80;99.90;;;;;;4975040;28;20197;-89
2022/06/14 13:25:42;;;;;;;5.43;1.23;;;23.70;99.90;;;;;;4973209;28;20209;-91
2022/06/14 13:28:31;;;;;;;2.35;1.20;;;23.70;99.90;;;;;;4970022;28;20204;-84
2022/06/14 13:31:16;;;;;;;2.83;1.25;;;23.60;99.90;;;;;;4974285;28;20201;-87
2022/06/14 13:33:52;;;;;;;3.40;1.52;;;23.40;99.90;;;;;;4974636;28;20228;-88
2022/06/14 13:36:26;;;;;;;1.60;1.08;;;23.40;99.90;;;;;;4973744;28;20216;-86
2022/06/14 13:38:58;;;;;;;3.40;1.40;;;23.40;99.90;;;;;;4974416;28;20251;-85
2022/06/14 13:41:35;;;;;;;3.33;1.30;;;23.40;99.90;;;;;;4973760;28;20531;-84
2022/06/14 13:44:08;;;;;;;3.53;1.73;;;23.50;99.90;;;;;;4974811;28;20266;-87
2022/06/14 13:46:43;;;;;;;2.35;1.13;;;23.60;99.90;;;;;;4969522;28;20208;-84
2022/06/14 13:49:18;;;;;;;2.30;1.27;;;23.80;99.90;;;;;;4954317;29;20275;-85